KPIT

Pittsburgh

Airport
ICAO code
KPIT
Summary
ICAO Region
NAM
ICAO Territory
Location

Findlay Township, Pittsburgh, Pennsylvania,

Coordinates
40° 29' 37" N , 80° 14' 15" W
KCC
Airport LOS
Parallel Runway Operation
Metar
KPIT 122351Z 01004KT 10SM FEW065 FEW250 31/14 A3013 RMK AO2 SLP201 T03110144 10328 20294 53004

Description

Pittsburgh International Airport (IATA: PIT), formerly Greater Pittsburgh Airport, Greater Pittsburgh International Airport and commonly referred to as Pittsburgh International, is a joint civil-military international airport located in the Pittsburgh suburb of Findlay Township, approximately 20 miles west of downtown Pittsburgh.

Climatology

Humid continental climate (Köppen climate classification Dfa) - characterized by four seasons: cold, windy, snowy winters, mild springs, hot, humid summers, and crisp and relatively short autumns. Precipitation reaches its lowest in January and February and peaks in summer and latter half of spring.

Runways

Designator Length Width Surface Rops
14/32 2469 46 CON Yes/Yes
10C/28C 2959 46 PEM Yes/Yes
10L/28R 3201 46 PEM Yes/Yes
10R/28L 3505 61 CON Yes/Yes

Airport map

Aerial View

SKYbrary Partners:

Safety knowledge contributed by: